Time;durP1;ratioP1;P1;durP2;ratioP2;P2;SDS_P1;SDS_P2;PMS_P1;PMS_P2;Temp;Humidity;BMP_temperature;BMP_pressure;BME280_temperature;BME280_humidity;BME280_pressure;Samples;Min_cycle;Max_cycle;Signal;HPM_P1;HPM_P2
2022/02/01 00:01:49;;;;;;;5.23;4.00;;;;;;;0.35;75.85;98321.86;1628594;86;21000;-72
2022/02/01 00:04:17;;;;;;;10.30;3.93;;;;;;;0.33;75.53;98317.33;1654696;86;21528;-74
2022/02/01 00:07:19;;;;;;;7.17;4.50;;;;;;;0.33;75.59;98328.41;1628079;86;21007;-73
2022/02/01 00:09:27;;;;;;;11.47;4.37;;;;;;;0.33;75.64;98335.02;1642192;86;20977;-81
2022/02/01 00:14:20;;;;;;;8.30;4.00;;;;;;;0.34;75.46;98331.33;1628236;86;21011;-80
2022/02/01 00:35:33;;;;;;;9.07;3.70;;;;;;;0.32;74.84;98327.59;1624462;86;21039;-78
2022/02/01 00:38:06;;;;;;;5.40;3.50;;;;;;;0.34;74.87;98333.45;1651665;86;21007;-76
2022/02/01 00:40:25;;;;;;;5.07;3.10;;;;;;;0.34;74.64;98347.19;1639629;87;21097;-74
2022/02/01 00:42:51;;;;;;;6.83;3.40;;;;;;;0.34;74.59;98341.91;1608731;86;21007;-76
2022/02/01 00:45:18;;;;;;;6.63;3.87;;;;;;;0.34;74.54;98345.87;1601107;86;21039;-75
2022/02/01 00:47:44;;;;;;;5.40;3.87;;;;;;;0.33;74.39;98353.53;1620198;87;21084;-76
2022/02/01 00:50:13;;;;;;;7.63;3.67;;;;;;;0.34;74.50;98351.97;1655293;85;21574;-77
2022/02/01 00:52:39;;;;;;;8.27;5.10;;;;;;;0.31;74.29;98347.13;1659146;86;21552;-79
2022/02/01 00:55:07;;;;;;;4.47;3.30;;;;;;;0.32;74.29;98341.33;1652659;86;21173;-77
2022/02/01 00:57:35;;;;;;;6.37;3.97;;;;;;;0.33;74.11;98353.53;1630235;86;21533;-78
2022/02/01 01:00:01;;;;;;;5.13;3.00;;;;;;;0.34;73.87;98359.91;1630176;86;22211;-76
2022/02/01 01:02:28;;;;;;;6.77;3.63;;;;;;;0.32;73.76;98370.41;1655238;86;21083;-80
2022/02/01 01:04:54;;;;;;;7.93;3.70;;;;;;;0.31;73.80;98341.03;1658448;86;21031;-76
2022/02/01 01:07:20;;;;;;;5.60;3.40;;;;;;;0.32;73.87;98338.17;1659236;86;21503;-79
2022/02/01 01:09:47;;;;;;;4.70;3.50;;;;;;;0.32;73.69;98345.30;1658782;86;21548;-76
2022/02/01 01:12:16;;;;;;;7.47;4.27;;;;;;;0.29;73.59;98355.77;1659195;86;21018;-79
2022/02/01 01:44:45;;;;;;;8.33;4.07;;;;;;;0.37;73.22;98375.35;1674812;85;21535;-85
2022/02/01 01:55:22;;;;;;;7.47;5.53;;;;;;;0.36;73.35;98380.34;1674322;85;20987;-87
2022/02/01 01:57:48;;;;;;;9.40;3.40;;;;;;;0.36;73.38;98383.48;1674967;85;21562;-83
2022/02/01 02:00:44;;;;;;;7.00;4.77;;;;;;;0.35;73.40;98384.52;1669361;84;21056;-82
2022/02/01 02:02:48;;;;;;;6.73;3.40;;;;;;;0.32;73.56;98383.13;1671358;85;22272;-86
2022/02/01 02:05:14;;;;;;;4.63;3.83;;;;;;;0.30;73.59;98386.98;1647317;85;21131;-87
2022/02/01 02:07:40;;;;;;;10.70;5.23;;;;;;;0.28;73.76;98379.30;1674137;85;21558;-90
2022/02/01 02:10:08;;;;;;;7.00;3.60;;;;;;;0.30;73.77;98383.03;1674113;84;21042;-88
2022/02/01 02:12:55;;;;;;;7.47;4.17;;;;;;;0.32;73.92;98393.70;1646855;85;21210;-86
2022/02/01 02:15:06;;;;;;;11.47;3.60;;;;;;;0.32;73.80;98387.09;1674256;84;21516;-84
2022/02/01 02:17:32;;;;;;;4.33;2.90;;;;;;;0.33;73.79;98400.61;1647152;85;21555;-80
2022/02/01 02:19:59;;;;;;;9.33;3.90;;;;;;;0.33;73.81;98395.33;1675040;84;22224;-75
2022/02/01 02:22:25;;;;;;;10.17;4.13;;;;;;;0.32;73.74;98395.53;1675808;84;21546;-84
2022/02/01 02:24:51;;;;;;;4.30;3.00;;;;;;;0.30;73.75;98411.59;1654454;85;21135;-77
2022/02/01 02:27:19;;;;;;;8.57;5.10;;;;;;;0.31;73.85;98400.52;1670949;84;21042;-81
2022/02/01 02:29:45;;;;;;;7.40;4.07;;;;;;;0.31;73.82;98398.69;1648433;85;21080;-82
2022/02/01 02:32:13;;;;;;;9.23;4.83;;;;;;;0.30;73.88;98394.41;1647092;85;21078;-79
2022/02/01 02:34:39;;;;;;;5.30;4.23;;;;;;;0.29;73.87;98396.75;1654675;84;21110;-81
2022/02/01 02:37:13;;;;;;;7.10;3.80;;;;;;;0.29;73.84;98395.94;1644083;85;21167;-80
2022/02/01 02:39:46;;;;;;;6.00;4.63;;;;;;;0.29;73.89;98395.43;1669207;85;21019;-86
2022/02/01 02:47:18;;;;;;;4.77;3.20;;;;;;;0.35;73.86;98411.77;1597769;88;21063;-84
2022/02/01 02:49:45;;;;;;;7.70;4.20;;;;;;;0.36;73.67;98419.19;1619963;88;21075;-78
2022/02/01 02:52:12;;;;;;;7.00;4.37;;;;;;;0.34;73.60;98410.14;1598944;88;21010;-80
2022/02/01 02:54:38;;;;;;;6.93;4.10;;;;;;;0.35;73.69;98409.12;1617269;88;21029;-79
2022/02/01 02:57:06;;;;;;;6.93;4.33;;;;;;;0.37;73.49;98418.98;1618626;87;21094;-79
2022/02/01 02:59:33;;;;;;;10.40;4.47;;;;;;;0.37;73.44;98417.66;1648358;86;21034;-81
2022/02/01 03:01:59;;;;;;;9.23;4.50;;;;;;;0.35;72.96;98413.59;1593478;89;21126;-80
2022/02/01 03:04:28;;;;;;;10.63;4.63;;;;;;;0.34;73.06;98411.97;1665058;86;21082;-78
2022/02/01 03:06:55;;;;;;;7.53;4.60;;;;;;;0.33;73.11;98413.83;1663056;86;21036;-84
2022/02/01 03:09:22;;;;;;;7.60;4.63;;;;;;;0.33;73.01;98427.56;1663600;86;22218;-81
2022/02/01 03:11:50;;;;;;;8.20;4.37;;;;;;;0.32;73.03;98422.78;1663476;86;21010;-80
2022/02/01 03:14:38;;;;;;;9.40;3.83;;;;;;;0.32;72.94;98426.75;1663575;86;21210;-83
2022/02/01 03:19:50;;;;;;;6.77;4.47;;;;;;;0.33;73.09;98431.53;1664054;86;20990;-78
2022/02/01 03:22:19;;;;;;;6.77;4.03;;;;;;;0.36;73.00;98433.73;1637631;85;21035;-80
2022/02/01 03:24:47;;;;;;;6.07;3.87;;;;;;;0.34;72.86;98427.83;1635846;86;21010;-79
2022/02/01 03:27:13;;;;;;;4.63;3.43;;;;;;;0.31;72.84;98430.41;1636709;86;21085;-81
2022/02/01 03:29:41;;;;;;;9.40;5.23;;;;;;;0.29;72.92;98428.48;1663227;86;46782;-80
2022/02/01 03:32:09;;;;;;;8.03;5.20;;;;;;;0.29;72.84;98431.63;1663439;86;21032;-84
2022/02/01 03:34:36;;;;;;;7.93;6.33;;;;;;;0.31;73.02;98437.02;1659407;86;21090;-81
2022/02/01 03:37:03;;;;;;;4.90;4.33;;;;;;;0.32;72.89;98440.48;1663648;86;20978;-83
2022/02/01 03:39:30;;;;;;;6.47;4.27;;;;;;;0.33;72.77;98438.95;1636279;86;22283;-86
2022/02/01 03:41:57;;;;;;;7.00;4.40;;;;;;;0.33;72.73;98441.59;1634307;87;20997;-82
2022/02/01 03:44:25;;;;;;;7.43;4.33;;;;;;;0.32;72.74;98429.39;1642045;86;21023;-83
2022/02/01 03:47:03;;;;;;;8.00;4.77;;;;;;;0.35;72.81;98442.17;1628363;87;21087;-90
2022/02/01 03:49:35;;;;;;;10.30;5.00;;;;;;;0.38;72.66;98446.23;1626652;88;21500;-87
2022/02/01 03:52:01;;;;;;;9.30;5.43;;;;;;;0.36;72.46;98432.41;1625383;88;21656;-85
2022/02/01 03:54:29;;;;;;;6.17;4.90;;;;;;;0.35;72.30;98436.88;1606563;88;21025;-90
2022/02/01 03:56:55;;;;;;;8.13;4.80;;;;;;;0.33;71.98;98443.42;1628574;88;21130;-89
2022/02/01 03:59:23;;;;;;;7.20;5.40;;;;;;;0.31;72.37;98438.85;1608289;87;21046;-83
2022/02/01 04:01:54;;;;;;;10.93;4.70;;;;;;;0.31;72.42;98438.34;1663358;86;21038;-84
2022/02/01 04:04:31;;;;;;;11.80;5.43;;;;;;;0.32;72.38;98441.29;1666679;86;21590;-85
2022/02/01 04:06:58;;;;;;;10.07;5.07;;;;;;;0.33;72.29;98450.84;1634128;86;21548;-85
2022/02/01 04:09:26;;;;;;;9.47;5.17;;;;;;;0.33;72.18;98456.14;1665874;86;21075;-86
2022/02/01 04:11:55;;;;;;;10.17;4.83;;;;;;;0.31;72.08;98456.03;1666538;86;21002;-84
2022/02/01 04:14:26;;;;;;;5.40;3.77;;;;;;;0.29;72.13;98467.33;1637340;86;21550;-81
2022/02/01 04:16:51;;;;;;;8.47;5.80;;;;;;;0.26;72.04;98461.97;1660278;86;21163;-81
2022/02/01 04:19:17;;;;;;;8.63;5.03;;;;;;;0.27;72.09;98461.46;1666248;86;21050;-81
2022/02/01 04:22:01;;;;;;;7.57;4.97;;;;;;;0.26;72.11;98458.00;1637575;86;20997;-82
2022/02/01 04:24:24;;;;;;;7.67;4.83;;;;;;;0.27;72.06;98460.95;1665378;86;20940;-78
2022/02/01 04:26:50;;;;;;;8.63;4.87;;;;;;;0.28;72.00;98474.48;1633851;86;21124;-78
2022/02/01 04:29:17;;;;;;;8.37;4.80;;;;;;;0.30;72.06;98478.20;1662516;86;21123;-81
2022/02/01 04:31:43;;;;;;;12.73;4.93;;;;;;;0.30;71.88;98475.05;1666076;86;20975;-80
2022/02/01 04:34:09;;;;;;;10.10;4.83;;;;;;;0.27;71.79;98487.39;1666292;86;21019;-77
2022/02/01 04:36:36;;;;;;;10.00;5.80;;;;;;;0.28;71.80;98482.41;1637592;86;21033;-79
2022/02/01 04:39:04;;;;;;;9.17;5.20;;;;;;;0.27;71.75;98488.71;1638165;86;21067;-77
2022/02/01 04:41:30;;;;;;;11.13;4.63;;;;;;;0.26;71.75;98484.44;1637675;86;21752;-78
2022/02/01 04:43:59;;;;;;;8.67;5.17;;;;;;;0.23;71.70;98489.35;1622624;86;21552;-80
2022/02/01 04:46:27;;;;;;;10.50;5.57;;;;;;;0.19;71.79;98486.84;1624251;88;21096;-86
2022/02/01 04:48:58;;;;;;;11.90;6.50;;;;;;;0.16;71.90;98494.67;1616173;88;21576;-86
2022/02/01 04:51:22;;;;;;;15.87;5.93;;;;;;;0.14;71.91;98482.19;1619439;87;21149;-85
2022/02/01 04:53:48;;;;;;;9.53;5.73;;;;;;;0.13;71.93;98481.08;1615938;87;21107;-81
2022/02/01 04:56:15;;;;;;;8.20;4.93;;;;;;;0.13;72.06;98485.04;1666299;85;21501;-82
2022/02/01 04:58:42;;;;;;;9.47;4.93;;;;;;;0.13;72.08;98501.71;1662422;85;21129;-80
2022/02/01 05:01:08;;;;;;;7.50;4.97;;;;;;;0.13;72.04;98496.42;1660154;84;21090;-79
2022/02/01 05:03:34;;;;;;;9.90;5.63;;;;;;;0.13;72.04;98505.67;1600030;88;21076;-80
2022/02/01 05:06:03;;;;;;;9.50;6.97;;;;;;;0.13;72.02;98499.58;1649721;86;21942;-79
2022/02/01 05:08:29;;;;;;;13.43;5.50;;;;;;;0.11;72.01;98506.39;1661307;86;20963;-80
2022/02/01 05:10:56;;;;;;;11.27;6.00;;;;;;;0.09;72.18;98511.09;1669727;85;21024;-78
2022/02/01 05:16:04;;;;;;;10.50;5.50;;;;;;;0.11;72.12;98513.50;1638461;86;21563;-76
2022/02/01 05:18:43;;;;;;;8.57;6.17;;;;;;;0.08;72.16;98516.07;1658461;86;21122;-76
2022/02/01 05:21:14;;;;;;;14.13;6.43;;;;;;;0.09;72.34;98522.98;1621723;88;21109;-77
2022/02/01 05:23:29;;;;;;;8.90;6.03;;;;;;;0.12;72.24;98527.02;1657631;85;21237;-76
2022/02/01 05:25:57;;;;;;;8.43;5.33;;;;;;;0.13;72.28;98533.43;1608335;87;21534;-77
2022/02/01 05:28:23;;;;;;;8.00;5.27;;;;;;;0.14;72.22;98540.34;1656769;86;21603;-78
2022/02/01 05:30:50;;;;;;;5.77;4.60;;;;;;;0.13;72.26;98544.00;1627495;85;21174;-80
2022/02/01 05:33:16;;;;;;;10.97;5.73;;;;;;;0.12;72.15;98543.70;1652180;85;20943;-77
2022/02/01 05:35:43;;;;;;;9.20;6.77;;;;;;;0.13;72.19;98545.84;1657471;84;21568;-79
2022/02/01 05:38:10;;;;;;;11.10;5.83;;;;;;;0.11;72.13;98549.19;1628775;87;21104;-78
2022/02/01 05:40:37;;;;;;;12.60;5.70;;;;;;;0.10;72.22;98556.81;1649337;86;21083;-79
2022/02/01 05:43:08;;;;;;;12.27;5.67;;;;;;;0.10;72.33;98564.73;1649479;86;21115;-81
2022/02/01 05:45:36;;;;;;;11.37;5.43;;;;;;;0.10;72.45;98566.88;1649126;86;21039;-79
2022/02/01 05:48:02;;;;;;;10.10;5.97;;;;;;;0.07;72.45;98571.27;1625580;87;21112;-78
2022/02/01 05:50:31;;;;;;;10.37;7.57;;;;;;;0.05;72.54;98565.37;1656083;86;21035;-83
2022/02/01 05:52:57;;;;;;;8.40;5.10;;;;;;;0.07;72.73;98569.13;1665320;84;21011;-82
2022/02/01 05:55:24;;;;;;;13.33;5.40;;;;;;;0.10;72.70;98584.56;1656611;85;21071;-80
2022/02/01 05:57:52;;;;;;;10.73;5.47;;;;;;;0.11;72.77;98584.87;1652738;85;21095;-77
2022/02/01 06:00:19;;;;;;;16.50;6.87;;;;;;;0.12;72.69;98590.47;1651290;86;21023;-79
2022/02/01 06:02:46;;;;;;;15.63;9.37;;;;;;;0.14;72.78;98589.75;1629676;87;20988;-78
2022/02/01 06:05:14;;;;;;;11.57;6.07;;;;;;;0.12;72.76;98601.03;1649927;86;21005;-78
2022/02/01 06:07:41;;;;;;;12.40;6.50;;;;;;;0.12;72.71;98603.17;1630665;86;22026;-80
2022/02/01 06:10:08;;;;;;;9.43;6.10;;;;;;;0.12;72.82;98597.07;1630421;86;21323;-77
2022/02/01 06:12:46;;;;;;;14.03;6.87;;;;;;;0.13;72.84;98605.31;1609046;86;21101;-84
2022/02/01 06:15:17;;;;;;;12.47;6.00;;;;;;;0.12;72.89;98613.75;1656781;86;21051;-84
2022/02/01 06:17:43;;;;;;;13.07;7.33;;;;;;;0.12;72.97;98619.54;1645941;87;21621;-85
2022/02/01 06:20:11;;;;;;;19.17;7.87;;;;;;;0.11;72.92;98633.77;1646346;87;21127;-85
2022/02/01 06:22:39;;;;;;;15.17;6.47;;;;;;;0.09;72.96;98628.71;1652759;84;21015;-85
2022/02/01 06:25:07;;;;;;;8.13;6.43;;;;;;;0.10;73.06;98632.14;1649820;86;21549;-79
2022/02/01 06:27:33;;;;;;;18.87;9.67;;;;;;;0.09;73.08;98635.32;1649888;86;20999;-79
2022/02/01 06:30:00;;;;;;;17.40;7.57;;;;;;;0.04;73.08;98631.67;1649845;86;20920;-79
2022/02/01 06:32:38;;;;;;;14.57;7.90;;;;;;;0.04;73.35;98636.45;1649716;87;21542;-84
2022/02/01 06:35:06;;;;;;;19.07;8.50;;;;;;;0.07;73.36;98644.46;1629024;87;21047;-88
2022/02/01 06:37:32;;;;;;;13.10;8.67;;;;;;;0.10;73.37;98642.20;1647647;86;21052;-87
2022/02/01 06:39:58;;;;;;;14.17;6.20;;;;;;;0.14;73.39;98645.27;1623206;86;21094;-84
2022/02/01 06:42:24;;;;;;;17.87;8.00;;;;;;;0.14;73.33;98650.05;1616630;86;21048;-81
2022/02/01 06:44:51;;;;;;;11.67;8.17;;;;;;;0.13;73.20;98658.99;1672216;84;21590;-87
2022/02/01 06:47:17;;;;;;;13.40;8.10;;;;;;;0.12;73.20;98652.58;1650085;87;21039;-85
2022/02/01 06:49:44;;;;;;;11.00;6.97;;;;;;;0.09;73.29;98658.30;1652611;85;21027;-85
2022/02/01 06:52:11;;;;;;;12.23;7.70;;;;;;;0.06;73.32;98657.37;1649430;86;21051;-86
2022/02/01 06:54:39;;;;;;;13.97;8.33;;;;;;;0.02;73.48;98667.55;1649731;87;21063;-87
2022/02/01 06:57:06;;;;;;;10.57;6.30;;;;;;;0.01;73.65;98652.70;1649799;86;21842;-87
2022/02/01 06:59:34;;;;;;;13.80;8.97;;;;;;;0.03;73.69;98671.01;1628902;87;21040;-86
2022/02/01 07:02:03;;;;;;;13.63;9.13;;;;;;;0.00;73.70;98669.61;1649538;86;21063;-88
2022/02/01 07:04:29;;;;;;;10.83;7.47;;;;;;;-0.02;73.83;98668.48;1649435;86;21027;-85
2022/02/01 07:06:56;;;;;;;15.23;9.37;;;;;;;-0.01;73.97;98675.40;1629385;87;21058;-84
2022/02/01 07:09:25;;;;;;;15.70;9.50;;;;;;;0.00;73.97;98677.00;1649385;86;21016;-83
2022/02/01 07:11:54;;;;;;;12.57;8.33;;;;;;;0.01;73.96;98683.09;1629395;87;20925;-88
2022/02/01 07:14:22;;;;;;;14.83;8.93;;;;;;;0.00;73.97;98676.22;1631747;86;21063;-86
2022/02/01 07:16:52;;;;;;;16.57;9.00;;;;;;;0.03;74.14;98680.27;1658784;86;21528;-84
2022/02/01 07:19:19;;;;;;;12.13;7.67;;;;;;;0.05;74.01;98680.34;1658603;86;21063;-85
2022/02/01 07:21:45;;;;;;;14.13;8.80;;;;;;;0.06;73.99;98697.02;1656649;86;21604;-84
2022/02/01 07:24:16;;;;;;;17.07;8.37;;;;;;;0.02;73.94;98690.52;1631470;86;20979;-85
2022/02/01 07:26:40;;;;;;;11.70;7.90;;;;;;;0.00;74.01;98688.11;1658721;86;21030;-84
2022/02/01 07:29:07;;;;;;;15.27;8.30;;;;;;;-0.01;74.11;98703.66;1652980;86;21075;-84
2022/02/01 07:31:33;;;;;;;19.03;11.70;;;;;;;-0.03;74.07;98692.47;1656278;85;21024;-85
2022/02/01 07:33:59;;;;;;;14.93;8.83;;;;;;;-0.05;74.20;98684.73;1652659;86;21132;-84
2022/02/01 07:36:29;;;;;;;15.30;9.83;;;;;;;-0.06;74.28;98694.21;1652913;86;21047;-84
2022/02/01 07:38:55;;;;;;;17.43;9.80;;;;;;;-0.04;74.33;98702.22;1632993;86;20900;-82
2022/02/01 07:41:21;;;;;;;14.40;9.10;;;;;;;-0.02;74.35;98690.13;1627275;87;21170;-79
2022/02/01 07:43:49;;;;;;;19.67;9.30;;;;;;;0.02;74.39;98712.98;1661551;85;21541;-81
2022/02/01 07:46:16;;;;;;;17.67;11.63;;;;;;;0.03;74.17;98692.97;1650177;86;21810;-78
2022/02/01 07:48:42;;;;;;;16.20;10.00;;;;;;;0.05;74.18;98696.20;1648747;86;21532;-82
2022/02/01 07:51:08;;;;;;;17.77;10.50;;;;;;;0.05;74.18;98705.98;1654780;85;21067;-84
2022/02/01 07:53:35;;;;;;;17.53;10.20;;;;;;;0.05;74.25;98703.34;1615789;87;21099;-82
2022/02/01 07:56:01;;;;;;;15.83;9.70;;;;;;;0.09;74.25;98709.84;1604732;88;21040;-84
2022/02/01 07:58:29;;;;;;;17.17;10.50;;;;;;;0.09;74.02;98702.72;1604764;89;21271;-85
2022/02/01 08:00:56;;;;;;;14.90;8.80;;;;;;;0.08;73.98;98712.98;1652613;86;20991;-86
2022/02/01 08:03:26;;;;;;;15.93;8.33;;;;;;;0.08;74.06;98721.42;1635867;86;21072;-84
2022/02/01 08:05:52;;;;;;;11.10;8.13;;;;;;;0.11;74.05;98717.03;1639193;86;21044;-79
2022/02/01 08:08:19;;;;;;;15.13;8.87;;;;;;;0.14;73.83;98720.61;1652971;85;21540;-80
2022/02/01 08:10:51;;;;;;;23.07;9.97;;;;;;;0.16;73.92;98726.48;1628737;87;21680;-82
2022/02/01 08:14:06;;;;;;;16.63;7.93;;;;;;;0.18;73.83;98729.23;1649622;86;21568;-79
2022/02/01 08:18:55;;;;;;;18.27;9.30;;;;;;;0.12;73.52;98729.23;1626671;86;21076;-82
2022/02/01 08:21:22;;;;;;;17.17;9.47;;;;;;;0.14;73.61;98724.06;1624839;86;21046;-79
2022/02/01 08:23:41;;;;;;;27.27;9.93;;;;;;;0.22;73.65;98739.70;1647688;86;21135;-83
2022/02/01 08:26:08;;;;;;;13.80;8.87;;;;;;;0.26;73.38;98734.30;1649625;86;20990;-85
2022/02/01 08:28:34;;;;;;;19.77;8.90;;;;;;;0.30;73.24;98734.69;1649791;86;21078;-78
2022/02/01 08:31:01;;;;;;;16.83;8.03;;;;;;;0.35;73.31;98732.23;1649549;86;21553;-79
2022/02/01 08:33:27;;;;;;;19.87;9.10;;;;;;;0.36;72.58;98741.28;1612641;86;21035;-83
2022/02/01 08:35:53;;;;;;;19.20;9.33;;;;;;;0.32;72.62;98726.86;1634407;86;21906;-81
2022/02/01 08:38:20;;;;;;;18.10;9.37;;;;;;;0.36;72.60;98733.86;1675111;84;21041;-80
2022/02/01 08:40:47;;;;;;;16.83;8.43;;;;;;;0.37;72.46;98733.66;1660711;85;20978;-79
2022/02/01 08:43:14;;;;;;;12.83;8.77;;;;;;;0.39;72.47;98730.28;1617247;86;21072;-85
2022/02/01 08:45:42;;;;;;;19.67;9.33;;;;;;;0.41;72.32;98745.45;1605066;89;21589;-87
2022/02/01 08:48:09;;;;;;;18.60;8.47;;;;;;;0.42;72.28;98752.36;1604411;87;21146;-85
2022/02/01 08:50:36;;;;;;;16.33;8.40;;;;;;;0.43;72.13;98746.57;1620208;87;20989;-83
2022/02/01 08:53:23;;;;;;;15.00;8.13;;;;;;;0.49;72.19;98756.80;1668284;85;21002;-87
2022/02/01 08:58:23;;;;;;;13.33;8.13;;;;;;;0.57;71.97;98760.56;1602009;88;21577;-83
2022/02/01 09:00:50;;;;;;;13.43;8.90;;;;;;;0.60;71.65;98762.27;1658560;86;21247;-84
2022/02/01 09:03:16;;;;;;;19.13;9.03;;;;;;;0.59;71.50;98766.44;1623535;86;21008;-81
2022/02/01 09:05:45;;;;;;;14.57;7.90;;;;;;;0.56;71.29;98772.16;1651166;84;21606;-79
2022/02/01 09:08:11;;;;;;;17.73;9.40;;;;;;;0.51;71.05;98766.67;1628682;87;21632;-75
2022/02/01 09:10:40;;;;;;;16.77;10.47;;;;;;;0.47;71.14;98770.26;1650022;85;21047;-80
2022/02/01 09:13:06;;;;;;;15.27;9.13;;;;;;;0.44;71.29;98764.86;1645790;85;21595;-78
2022/02/01 09:15:32;;;;;;;15.70;10.10;;;;;;;0.41;71.31;98776.36;1645642;87;21107;-83
2022/02/01 09:18:00;;;;;;;16.60;9.43;;;;;;;0.43;71.36;98771.16;1647251;85;21101;-82
2022/02/01 09:20:28;;;;;;;19.37;9.80;;;;;;;0.46;71.31;98764.66;1653273;85;21064;-82
2022/02/01 09:22:55;;;;;;;20.27;8.67;;;;;;;0.48;71.30;98779.01;1621287;86;21161;-79
2022/02/01 09:25:23;;;;;;;17.17;10.23;;;;;;;0.50;71.08;98773.80;1637445;86;21112;-90
2022/02/01 09:27:50;;;;;;;17.53;10.20;;;;;;;0.46;70.81;98785.81;1645552;85;21064;-85
2022/02/01 09:30:19;;;;;;;23.17;10.73;;;;;;;0.45;70.57;98781.54;1634106;86;20976;-80
2022/02/01 09:32:46;;;;;;;14.27;9.37;;;;;;;0.46;70.59;98769.13;1642183;87;21012;-81
2022/02/01 09:35:14;;;;;;;16.57;9.07;;;;;;;0.49;70.68;98770.84;1628568;86;21015;-79
2022/02/01 09:37:41;;;;;;;19.27;9.77;;;;;;;0.53;70.36;98774.69;1650051;87;21551;-89
2022/02/01 09:40:09;;;;;;;17.00;9.87;;;;;;;0.53;70.12;98760.14;1601239;88;20989;-89
2022/02/01 09:42:38;;;;;;;15.67;9.53;;;;;;;0.54;69.87;98768.89;1575076;89;21044;-87
2022/02/01 09:45:07;;;;;;;19.43;10.10;;;;;;;0.55;69.86;98774.49;1619004;87;21097;-86
2022/02/01 09:47:39;;;;;;;19.43;11.03;;;;;;;0.56;69.62;98765.55;1617276;87;21003;-85
2022/02/01 09:50:07;;;;;;;20.55;12.53;;;;;;;0.58;69.88;98748.94;1642036;86;21156;-85
2022/02/01 09:52:34;;;;;;;16.90;9.73;;;;;;;0.63;69.72;98757.06;1661017;86;20935;-89
2022/02/01 09:55:05;;;;;;;18.97;9.37;;;;;;;0.65;69.44;98748.42;1658957;86;21031;-89
2022/02/01 09:57:32;;;;;;;17.47;10.73;;;;;;;0.65;69.09;98753.71;1628275;86;21043;-87
2022/02/01 10:00:04;;;;;;;16.70;8.50;;;;;;;0.65;68.86;98766.94;1655599;86;20934;-85
2022/02/01 10:02:37;;;;;;;18.30;10.23;;;;;;;0.67;68.68;98745.06;1651534;82;21255;-85
2022/02/01 10:05:08;;;;;;;;;;;;;;;0.70;68.53;98755.22;1661681;82;20996;-91
2022/02/01 10:07:48;;;;;;;16.93;9.70;;;;;;;0.74;68.19;98745.33;1606790;86;20166;-88
2022/02/01 10:10:19;;;;;;;14.60;8.70;;;;;;;0.74;68.09;98746.66;1648124;85;21611;-83
2022/02/01 10:13:13;;;;;;;15.83;8.40;;;;;;;0.77;67.85;98748.86;1674382;84;20998;-81
2022/02/01 10:15:36;;;;;;;16.27;9.23;;;;;;;0.79;67.80;98757.93;1668411;84;21136;-83
2022/02/01 10:18:04;;;;;;;15.57;8.37;;;;;;;0.84;67.52;98754.95;1652687;86;21076;-84
2022/02/01 10:20:42;;;;;;;30.07;12.17;;;;;;;0.93;67.39;98749.41;1623815;86;21091;-90
2022/02/01 10:23:22;;;;;;;17.43;9.30;;;;;;;1.00;67.25;98751.53;1652129;86;21052;-88
2022/02/01 10:26:09;;;;;;;19.17;8.80;;;;;;;1.06;66.41;98741.40;1652484;85;20985;-89
2022/02/01 10:31:25;;;;;;;15.63;9.20;;;;;;;1.09;65.59;98757.70;1653052;86;20987;-79
2022/02/01 10:36:18;;;;;;;19.03;9.90;;;;;;;1.14;65.41;98757.88;1658363;85;21035;-89
2022/02/01 10:38:45;;;;;;;12.40;7.83;;;;;;;1.16;64.74;98766.91;1661191;85;21102;-90
2022/02/01 10:41:14;;;;;;;11.90;7.10;;;;;;;1.19;64.29;98759.37;1619207;88;21051;-89
2022/02/01 10:43:42;;;;;;;19.13;8.40;;;;;;;1.20;64.05;98760.98;1613251;87;21073;-91
2022/02/01 10:46:12;;;;;;;14.17;8.07;;;;;;;1.19;63.99;98762.53;1593263;87;21573;-86
2022/02/01 10:48:41;;;;;;;14.00;9.23;;;;;;;1.18;63.98;98760.39;1629284;87;21134;-84
2022/02/01 10:51:14;;;;;;;14.23;8.00;;;;;;;1.20;64.31;98759.65;1624866;87;21616;-85
2022/02/01 10:53:41;;;;;;;9.63;7.08;;;;;;;1.23;63.58;98765.87;1598121;89;22090;-87
2022/02/01 10:56:16;;;;;;;14.27;7.00;;;;;;;1.26;62.80;98788.45;1614944;87;21021;-86
2022/02/01 10:58:44;;;;;;;14.27;7.40;;;;;;;1.30;62.80;98759.19;1611887;88;21186;-87
2022/02/01 11:01:11;;;;;;;11.37;7.57;;;;;;;1.34;62.69;98774.98;1637123;87;21135;-83
2022/02/01 11:03:46;;;;;;;13.73;7.90;;;;;;;1.36;62.76;98771.59;1626431;87;21358;-84
2022/02/01 11:06:13;;;;;;;15.03;8.60;;;;;;;1.39;62.81;98765.85;1609050;87;22109;-83
2022/02/01 11:08:42;;;;;;;12.83;7.47;;;;;;;1.42;62.84;98775.22;1604286;89;21555;-84
2022/02/01 11:11:17;;;;;;;14.50;7.73;;;;;;;1.47;62.41;98767.45;1607924;86;32923;-83
2022/02/01 11:13:47;;;;;;;20.40;10.77;;;;;;;1.50;62.30;98758.55;1578502;89;21032;-80
2022/02/01 11:16:21;;;;;;;12.40;7.87;;;;;;;1.50;62.25;98763.03;1577680;90;21382;-80
2022/02/01 11:18:57;;;;;;;12.27;7.83;;;;;;;1.52;61.92;98767.63;1572808;90;21610;-81
2022/02/01 11:21:26;;;;;;;9.67;6.67;;;;;;;1.47;61.27;98774.89;1567069;89;21037;-82
2022/02/01 11:24:06;;;;;;;16.27;8.60;;;;;;;1.44;61.61;98765.24;1593903;89;21139;-84
2022/02/01 11:26:38;;;;;;;12.37;7.83;;;;;;;1.44;61.81;98779.81;1594407;89;21098;-80
2022/02/01 11:29:49;;;;;;;13.87;8.10;;;;;;;1.41;60.66;98763.81;1584086;89;21143;-78
2022/02/01 11:31:48;;;;;;;15.07;7.47;;;;;;;1.39;60.60;98776.98;1606815;89;21802;-82
2022/02/01 11:34:31;;;;;;;10.67;6.90;;;;;;;1.35;60.09;98786.36;1609963;89;21560;-83
2022/02/01 11:37:08;;;;;;;10.17;7.17;;;;;;;1.30;59.85;98778.55;1605779;88;21211;-82
2022/02/01 11:39:53;;;;;;;12.67;7.67;;;;;;;1.29;60.01;98777.45;1606133;89;21096;-85
2022/02/01 11:42:23;;;;;;;12.50;6.43;;;;;;;1.26;59.43;98771.23;1620798;85;22238;-82
2022/02/01 11:45:03;;;;;;;10.93;6.97;;;;;;;1.18;59.32;98774.95;1609337;87;21923;-81
2022/02/01 11:47:37;;;;;;;13.90;6.43;;;;;;;1.10;59.36;98786.31;1610497;88;21130;-78
2022/02/01 11:50:14;;;;;;;9.43;6.70;;;;;;;1.06;59.62;98753.31;1639660;86;21087;-82
2022/02/01 11:52:50;;;;;;;13.60;7.00;;;;;;;1.05;59.99;98766.27;1623197;87;21726;-82
2022/02/01 11:55:17;;;;;;;12.87;5.83;;;;;;;1.02;59.69;98760.88;1630300;86;21607;-87
2022/02/01 11:57:49;;;;;;;13.10;6.13;;;;;;;1.03;59.48;98747.94;1649305;86;20959;-80
2022/02/01 12:00:21;;;;;;;10.23;6.17;;;;;;;1.05;59.07;98775.54;1639585;86;20979;-82
2022/02/01 12:02:51;;;;;;;13.87;6.93;;;;;;;1.03;59.64;98753.23;1637916;86;20967;-81
2022/02/01 12:05:28;;;;;;;12.83;6.07;;;;;;;1.04;59.47;98745.61;1629687;86;21032;-82
2022/02/01 12:08:13;;;;;;;9.00;6.17;;;;;;;1.06;59.20;98766.55;1602013;88;21039;-81
2022/02/01 12:10:52;;;;;;;8.43;5.00;;;;;;;0.98;57.90;98768.94;1629529;88;21110;-85
2022/02/01 12:13:23;;;;;;;9.97;5.10;;;;;;;0.92;57.98;98749.11;1629734;86;21000;-80
2022/02/01 12:15:54;;;;;;;15.30;6.37;;;;;;;0.90;58.32;98750.66;1642684;86;21088;-85
2022/02/01 12:18:34;;;;;;;8.60;6.17;;;;;;;0.91;58.73;98757.59;1634304;86;21639;-80
2022/02/01 12:21:42;;;;;;;14.37;6.03;;;;;;;0.90;58.48;98768.38;1623789;86;21127;-79
2022/02/01 12:24:08;;;;;;;9.13;5.57;;;;;;;0.86;57.99;98770.09;1628214;86;21330;-83
2022/02/01 12:26:39;;;;;;;6.07;5.00;;;;;;;0.81;57.58;98763.84;1629769;88;21047;-84
2022/02/01 12:29:08;;;;;;;9.37;5.30;;;;;;;0.79;57.80;98756.61;1623578;88;21031;-82
2022/02/01 12:31:38;;;;;;;7.30;5.23;;;;;;;0.81;57.99;98754.58;1626992;86;20987;-81
2022/02/01 12:34:07;;;;;;;9.63;5.33;;;;;;;0.78;57.58;98769.02;1618736;88;20988;-79
2022/02/01 12:36:38;;;;;;;11.23;5.73;;;;;;;0.77;57.66;98755.98;1596634;89;21133;-83
2022/02/01 12:39:36;;;;;;;9.83;5.40;;;;;;;0.76;57.99;98758.36;1601166;89;21067;-84
2022/02/01 12:42:00;;;;;;;9.47;4.57;;;;;;;0.79;58.38;98755.28;1652537;83;20907;-83
2022/02/01 12:46:56;;;;;;;9.73;5.63;;;;;;;0.81;57.52;98775.23;1596634;88;22109;-89
2022/02/01 12:49:47;;;;;;;9.35;4.87;;;;;;;0.80;57.09;98770.96;1630630;87;26929;-84
2022/02/01 12:52:25;;;;;;;5.50;4.13;;;;;;;0.81;57.22;98775.75;1605807;87;21020;-84
2022/02/01 12:55:02;;;;;;;8.40;5.30;;;;;;;0.78;56.37;98776.96;1607032;87;21076;-79
2022/02/01 12:57:29;;;;;;;8.30;4.40;;;;;;;0.76;56.06;98769.77;1618691;88;21051;-84
2022/02/01 13:00:02;;;;;;;8.40;5.13;;;;;;;0.78;56.42;98775.64;1579038;88;21016;-72
2022/02/01 13:02:32;;;;;;;8.90;4.83;;;;;;;0.82;56.53;98779.99;1645040;87;21193;-79
2022/02/01 13:05:03;;;;;;;8.00;4.30;;;;;;;0.82;56.24;98786.10;1646616;87;21397;-77
2022/02/01 13:07:54;;;;;;;6.37;5.43;;;;;;;0.81;56.44;98777.07;1630905;87;20937;-80
2022/02/01 13:21:18;;;;;;;8.47;5.50;;;;;;;0.74;56.47;98784.20;1619927;87;21027;-70